sensor_id;sensor_type;location;lat;lon;timestamp;P1;durP1;ratioP1;P2;durP2;ratioP2
34836;SDS011;21053;50.848;4.652;2022-12-17T00:00:45;85.03;;;30.20;;
34836;SDS011;21053;50.848;4.652;2022-12-17T00:03:31;77.95;;;29.50;;
34836;SDS011;21053;50.848;4.652;2022-12-17T00:06:19;88.68;;;29.63;;
34836;SDS011;21053;50.848;4.652;2022-12-17T00:09:04;72.72;;;27.20;;
34836;SDS011;21053;50.848;4.652;2022-12-17T00:11:49;77.60;;;27.67;;
34836;SDS011;21053;50.848;4.652;2022-12-17T00:14:34;75.60;;;29.33;;
34836;SDS011;21053;50.848;4.652;2022-12-17T00:17:20;83.78;;;29.92;;
34836;SDS011;21053;50.848;4.652;2022-12-17T00:23:04;78.97;;;29.17;;
34836;SDS011;21053;50.848;4.652;2022-12-17T00:25:52;78.05;;;30.30;;
34836;SDS011;21053;50.848;4.652;2022-12-17T00:28:38;79.65;;;30.55;;
34836;SDS011;21053;50.848;4.652;2022-12-17T00:31:24;84.20;;;30.27;;
34836;SDS011;21053;50.848;4.652;2022-12-17T00:34:10;85.72;;;30.20;;
34836;SDS011;21053;50.848;4.652;2022-12-17T00:36:54;87.03;;;30.52;;
34836;SDS011;21053;50.848;4.652;2022-12-17T00:39:42;89.15;;;30.92;;
34836;SDS011;21053;50.848;4.652;2022-12-17T00:42:29;86.68;;;30.33;;
34836;SDS011;21053;50.848;4.652;2022-12-17T00:45:13;81.45;;;29.50;;
34836;SDS011;21053;50.848;4.652;2022-12-17T00:50:44;86.72;;;31.48;;
34836;SDS011;21053;50.848;4.652;2022-12-17T00:53:31;91.93;;;31.00;;
34836;SDS011;21053;50.848;4.652;2022-12-17T00:56:16;83.00;;;31.70;;
34836;SDS011;21053;50.848;4.652;2022-12-17T00:59:14;76.43;;;29.38;;
34836;SDS011;21053;50.848;4.652;2022-12-17T01:01:58;94.40;;;32.78;;
34836;SDS011;21053;50.848;4.652;2022-12-17T01:04:42;101.03;;;33.28;;
34836;SDS011;21053;50.848;4.652;2022-12-17T01:07:28;90.25;;;32.50;;
34836;SDS011;21053;50.848;4.652;2022-12-17T01:10:16;77.50;;;32.50;;
34836;SDS011;21053;50.848;4.652;2022-12-17T01:13:00;95.28;;;32.92;;
34836;SDS011;21053;50.848;4.652;2022-12-17T01:15:44;97.03;;;33.90;;
34836;SDS011;21053;50.848;4.652;2022-12-17T01:18:29;89.90;;;32.47;;
34836;SDS011;21053;50.848;4.652;2022-12-17T01:21:14;90.75;;;32.63;;
34836;SDS011;21053;50.848;4.652;2022-12-17T01:23:58;84.38;;;33.20;;
34836;SDS011;21053;50.848;4.652;2022-12-17T01:26:45;90.25;;;31.50;;
34836;SDS011;21053;50.848;4.652;2022-12-17T01:39:17;80.47;;;30.77;;
34836;SDS011;21053;50.848;4.652;2022-12-17T01:42:07;88.93;;;31.92;;
34836;SDS011;21053;50.848;4.652;2022-12-17T01:44:58;85.25;;;30.30;;
34836;SDS011;21053;50.848;4.652;2022-12-17T01:47:49;89.15;;;32.05;;
34836;SDS011;21053;50.848;4.652;2022-12-17T01:53:41;84.57;;;32.40;;
34836;SDS011;21053;50.848;4.652;2022-12-17T01:56:32;92.63;;;34.70;;
34836;SDS011;21053;50.848;4.652;2022-12-17T01:59:20;89.15;;;33.90;;
34836;SDS011;21053;50.848;4.652;2022-12-17T02:05:16;94.38;;;31.52;;
34836;SDS011;21053;50.848;4.652;2022-12-17T02:08:28;93.88;;;32.97;;
34836;SDS011;21053;50.848;4.652;2022-12-17T02:17:31;84.60;;;33.15;;
34836;SDS011;21053;50.848;4.652;2022-12-17T02:32:33;87.97;;;31.85;;
34836;SDS011;21053;50.848;4.652;2022-12-17T02:38:41;79.68;;;30.70;;
34836;SDS011;21053;50.848;4.652;2022-12-17T02:41:27;88.18;;;33.20;;
34836;SDS011;21053;50.848;4.652;2022-12-17T02:44:16;94.07;;;32.58;;
34836;SDS011;21053;50.848;4.652;2022-12-17T02:47:05;91.88;;;33.92;;
34836;SDS011;21053;50.848;4.652;2022-12-17T02:52:39;88.57;;;33.47;;
34836;SDS011;21053;50.848;4.652;2022-12-17T02:55:30;93.20;;;33.75;;
34836;SDS011;21053;50.848;4.652;2022-12-17T02:58:14;91.43;;;34.17;;
34836;SDS011;21053;50.848;4.652;2022-12-17T03:00:59;88.15;;;32.55;;
34836;SDS011;21053;50.848;4.652;2022-12-17T03:03:45;96.25;;;32.58;;
34836;SDS011;21053;50.848;4.652;2022-12-17T03:06:30;88.75;;;34.20;;
34836;SDS011;21053;50.848;4.652;2022-12-17T03:09:15;95.45;;;35.00;;
34836;SDS011;21053;50.848;4.652;2022-12-17T03:12:02;93.28;;;33.25;;
34836;SDS011;21053;50.848;4.652;2022-12-17T03:14:47;89.07;;;33.42;;
34836;SDS011;21053;50.848;4.652;2022-12-17T03:17:32;92.00;;;34.43;;
34836;SDS011;21053;50.848;4.652;2022-12-17T03:20:18;98.13;;;33.90;;
34836;SDS011;21053;50.848;4.652;2022-12-17T03:23:09;86.60;;;32.58;;
34836;SDS011;21053;50.848;4.652;2022-12-17T03:25:59;102.65;;;35.28;;
34836;SDS011;21053;50.848;4.652;2022-12-17T03:28:46;95.45;;;32.63;;
34836;SDS011;21053;50.848;4.652;2022-12-17T03:34:22;97.13;;;33.05;;
34836;SDS011;21053;50.848;4.652;2022-12-17T03:37:08;89.22;;;32.97;;
34836;SDS011;21053;50.848;4.652;2022-12-17T03:39:53;86.35;;;32.22;;
34836;SDS011;21053;50.848;4.652;2022-12-17T03:42:39;95.97;;;32.55;;
34836;SDS011;21053;50.848;4.652;2022-12-17T03:45:24;84.22;;;32.45;;
34836;SDS011;21053;50.848;4.652;2022-12-17T03:48:11;87.35;;;32.10;;
34836;SDS011;21053;50.848;4.652;2022-12-17T03:51:00;97.93;;;34.78;;
34836;SDS011;21053;50.848;4.652;2022-12-17T03:53:45;87.70;;;31.63;;
34836;SDS011;21053;50.848;4.652;2022-12-17T03:56:33;94.88;;;34.33;;
34836;SDS011;21053;50.848;4.652;2022-12-17T03:59:18;89.60;;;33.80;;
34836;SDS011;21053;50.848;4.652;2022-12-17T04:04:49;93.40;;;33.20;;
34836;SDS011;21053;50.848;4.652;2022-12-17T04:07:35;98.47;;;34.55;;
34836;SDS011;21053;50.848;4.652;2022-12-17T04:10:22;96.85;;;33.38;;
34836;SDS011;21053;50.848;4.652;2022-12-17T04:13:09;99.72;;;33.72;;
34836;SDS011;21053;50.848;4.652;2022-12-17T04:15:57;100.93;;;34.72;;
34836;SDS011;21053;50.848;4.652;2022-12-17T04:18:41;105.90;;;33.20;;
34836;SDS011;21053;50.848;4.652;2022-12-17T04:24:48;87.97;;;31.83;;
34836;SDS011;21053;50.848;4.652;2022-12-17T04:27:33;92.78;;;32.97;;
34836;SDS011;21053;50.848;4.652;2022-12-17T04:30:17;94.03;;;33.13;;
34836;SDS011;21053;50.848;4.652;2022-12-17T04:33:02;91.93;;;34.05;;
34836;SDS011;21053;50.848;4.652;2022-12-17T04:38:34;93.88;;;32.25;;
34836;SDS011;21053;50.848;4.652;2022-12-17T04:41:19;92.43;;;34.08;;
34836;SDS011;21053;50.848;4.652;2022-12-17T04:44:04;108.45;;;37.15;;
34836;SDS011;21053;50.848;4.652;2022-12-17T04:46:48;95.43;;;32.75;;
34836;SDS011;21053;50.848;4.652;2022-12-17T04:49:32;90.07;;;31.98;;
34836;SDS011;21053;50.848;4.652;2022-12-17T04:52:17;99.00;;;34.90;;
34836;SDS011;21053;50.848;4.652;2022-12-17T04:55:03;87.70;;;34.33;;
34836;SDS011;21053;50.848;4.652;2022-12-17T04:57:50;97.22;;;32.45;;
34836;SDS011;21053;50.848;4.652;2022-12-17T05:00:34;96.28;;;33.10;;
34836;SDS011;21053;50.848;4.652;2022-12-17T05:05:58;91.05;;;32.33;;
34836;SDS011;21053;50.848;4.652;2022-12-17T05:11:32;105.00;;;34.55;;
34836;SDS011;21053;50.848;4.652;2022-12-17T05:14:18;93.55;;;35.28;;
34836;SDS011;21053;50.848;4.652;2022-12-17T05:17:03;91.15;;;33.97;;
34836;SDS011;21053;50.848;4.652;2022-12-17T05:19:51;91.32;;;33.33;;
34836;SDS011;21053;50.848;4.652;2022-12-17T05:22:35;90.10;;;33.97;;
34836;SDS011;21053;50.848;4.652;2022-12-17T05:25:21;102.95;;;34.30;;
34836;SDS011;21053;50.848;4.652;2022-12-17T05:28:06;98.13;;;33.47;;
34836;SDS011;21053;50.848;4.652;2022-12-17T05:30:53;88.15;;;31.95;;
34836;SDS011;21053;50.848;4.652;2022-12-17T05:33:38;90.63;;;33.20;;
34836;SDS011;21053;50.848;4.652;2022-12-17T05:36:24;87.60;;;32.45;;
34836;SDS011;21053;50.848;4.652;2022-12-17T05:39:08;92.47;;;32.92;;
34836;SDS011;21053;50.848;4.652;2022-12-17T05:41:58;91.57;;;33.13;;
34836;SDS011;21053;50.848;4.652;2022-12-17T05:44:43;91.05;;;32.83;;
34836;SDS011;21053;50.848;4.652;2022-12-17T05:47:27;96.03;;;32.33;;
34836;SDS011;21053;50.848;4.652;2022-12-17T05:50:14;101.60;;;34.28;;
34836;SDS011;21053;50.848;4.652;2022-12-17T05:53:02;97.93;;;33.88;;
34836;SDS011;21053;50.848;4.652;2022-12-17T05:55:51;96.30;;;33.17;;
34836;SDS011;21053;50.848;4.652;2022-12-17T05:58:35;98.03;;;34.25;;
34836;SDS011;21053;50.848;4.652;2022-12-17T06:01:20;97.32;;;34.10;;
34836;SDS011;21053;50.848;4.652;2022-12-17T06:04:15;110.68;;;36.33;;
34836;SDS011;21053;50.848;4.652;2022-12-17T06:07:11;115.82;;;37.05;;
34836;SDS011;21053;50.848;4.652;2022-12-17T06:09:56;103.68;;;36.80;;
34836;SDS011;21053;50.848;4.652;2022-12-17T06:12:42;99.93;;;36.33;;
34836;SDS011;21053;50.848;4.652;2022-12-17T06:15:26;104.63;;;36.83;;
34836;SDS011;21053;50.848;4.652;2022-12-17T06:18:10;90.55;;;33.45;;
34836;SDS011;21053;50.848;4.652;2022-12-17T06:20:54;91.88;;;34.10;;
34836;SDS011;21053;50.848;4.652;2022-12-17T06:23:38;98.35;;;35.17;;
34836;SDS011;21053;50.848;4.652;2022-12-17T06:26:23;94.00;;;34.75;;
34836;SDS011;21053;50.848;4.652;2022-12-17T06:29:08;98.13;;;36.50;;
34836;SDS011;21053;50.848;4.652;2022-12-17T06:31:55;98.47;;;35.75;;
34836;SDS011;21053;50.848;4.652;2022-12-17T06:34:42;93.97;;;34.10;;
34836;SDS011;21053;50.848;4.652;2022-12-17T06:37:27;99.47;;;34.90;;
34836;SDS011;21053;50.848;4.652;2022-12-17T06:40:11;109.10;;;36.05;;
34836;SDS011;21053;50.848;4.652;2022-12-17T06:42:55;92.55;;;34.72;;
34836;SDS011;21053;50.848;4.652;2022-12-17T06:45:41;102.65;;;36.42;;
34836;SDS011;21053;50.848;4.652;2022-12-17T06:48:27;94.55;;;35.35;;
34836;SDS011;21053;50.848;4.652;2022-12-17T06:51:14;101.35;;;36.88;;
34836;SDS011;21053;50.848;4.652;2022-12-17T06:54:01;88.70;;;33.67;;
34836;SDS011;21053;50.848;4.652;2022-12-17T06:56:45;97.45;;;35.25;;
34836;SDS011;21053;50.848;4.652;2022-12-17T06:59:30;100.00;;;34.38;;
34836;SDS011;21053;50.848;4.652;2022-12-17T07:02:14;101.00;;;35.80;;
34836;SDS011;21053;50.848;4.652;2022-12-17T07:04:59;90.72;;;34.30;;
34836;SDS011;21053;50.848;4.652;2022-12-17T07:07:43;112.07;;;35.70;;
34836;SDS011;21053;50.848;4.652;2022-12-17T07:10:48;84.60;;;34.42;;
34836;SDS011;21053;50.848;4.652;2022-12-17T07:13:33;96.85;;;34.38;;
34836;SDS011;21053;50.848;4.652;2022-12-17T07:16:18;109.80;;;37.55;;
34836;SDS011;21053;50.848;4.652;2022-12-17T07:19:02;96.97;;;37.05;;
34836;SDS011;21053;50.848;4.652;2022-12-17T07:21:48;109.82;;;35.80;;
34836;SDS011;21053;50.848;4.652;2022-12-17T07:24:34;101.22;;;37.08;;
34836;SDS011;21053;50.848;4.652;2022-12-17T07:27:21;102.75;;;34.60;;
34836;SDS011;21053;50.848;4.652;2022-12-17T07:30:07;101.55;;;36.58;;
34836;SDS011;21053;50.848;4.652;2022-12-17T07:38:38;97.20;;;34.00;;
34836;SDS011;21053;50.848;4.652;2022-12-17T07:41:23;112.38;;;37.55;;
34836;SDS011;21053;50.848;4.652;2022-12-17T07:44:09;96.68;;;35.45;;
34836;SDS011;21053;50.848;4.652;2022-12-17T07:46:56;79.90;;;29.83;;
34836;SDS011;21053;50.848;4.652;2022-12-17T07:49:40;95.03;;;35.95;;
34836;SDS011;21053;50.848;4.652;2022-12-17T07:52:32;108.00;;;35.53;;
34836;SDS011;21053;50.848;4.652;2022-12-17T07:55:16;93.05;;;35.22;;
34836;SDS011;21053;50.848;4.652;2022-12-17T07:58:06;101.68;;;34.70;;
34836;SDS011;21053;50.848;4.652;2022-12-17T08:00:59;102.28;;;34.80;;
34836;SDS011;21053;50.848;4.652;2022-12-17T08:04:51;103.40;;;35.72;;
34836;SDS011;21053;50.848;4.652;2022-12-17T08:07:37;109.43;;;36.60;;
34836;SDS011;21053;50.848;4.652;2022-12-17T08:10:21;102.95;;;33.70;;
34836;SDS011;21053;50.848;4.652;2022-12-17T08:13:08;100.22;;;34.58;;
34836;SDS011;21053;50.848;4.652;2022-12-17T08:15:55;98.38;;;35.05;;
34836;SDS011;21053;50.848;4.652;2022-12-17T08:18:40;101.72;;;35.25;;
34836;SDS011;21053;50.848;4.652;2022-12-17T08:21:25;101.57;;;36.42;;
34836;SDS011;21053;50.848;4.652;2022-12-17T08:24:09;93.43;;;35.42;;
34836;SDS011;21053;50.848;4.652;2022-12-17T08:26:54;92.78;;;35.00;;
34836;SDS011;21053;50.848;4.652;2022-12-17T08:29:39;101.13;;;36.28;;
34836;SDS011;21053;50.848;4.652;2022-12-17T08:32:23;99.90;;;35.63;;
34836;SDS011;21053;50.848;4.652;2022-12-17T08:35:09;101.88;;;36.83;;
34836;SDS011;21053;50.848;4.652;2022-12-17T08:37:59;117.90;;;41.75;;
34836;SDS011;21053;50.848;4.652;2022-12-17T08:40:46;104.18;;;36.85;;
34836;SDS011;21053;50.848;4.652;2022-12-17T08:46:18;108.45;;;41.20;;
34836;SDS011;21053;50.848;4.652;2022-12-17T08:49:05;107.47;;;42.40;;
34836;SDS011;21053;50.848;4.652;2022-12-17T08:51:52;112.85;;;40.92;;
34836;SDS011;21053;50.848;4.652;2022-12-17T08:54:36;103.05;;;39.38;;
34836;SDS011;21053;50.848;4.652;2022-12-17T08:57:22;109.50;;;35.78;;
34836;SDS011;21053;50.848;4.652;2022-12-17T09:00:07;88.78;;;36.05;;
34836;SDS011;21053;50.848;4.652;2022-12-17T09:02:58;102.00;;;37.05;;
34836;SDS011;21053;50.848;4.652;2022-12-17T09:05:43;99.63;;;37.42;;
34836;SDS011;21053;50.848;4.652;2022-12-17T09:08:31;108.38;;;36.75;;
34836;SDS011;21053;50.848;4.652;2022-12-17T09:11:17;107.60;;;37.28;;
34836;SDS011;21053;50.848;4.652;2022-12-17T09:14:01;92.10;;;34.88;;
34836;SDS011;21053;50.848;4.652;2022-12-17T09:16:49;107.65;;;36.65;;
34836;SDS011;21053;50.848;4.652;2022-12-17T09:22:17;87.40;;;31.80;;
34836;SDS011;21053;50.848;4.652;2022-12-17T09:27:49;113.82;;;35.05;;
34836;SDS011;21053;50.848;4.652;2022-12-17T09:30:34;103.57;;;37.08;;
34836;SDS011;21053;50.848;4.652;2022-12-17T09:33:18;94.28;;;32.80;;
34836;SDS011;21053;50.848;4.652;2022-12-17T09:36:03;97.38;;;34.20;;
34836;SDS011;21053;50.848;4.652;2022-12-17T09:41:44;98.90;;;33.00;;
34836;SDS011;21053;50.848;4.652;2022-12-17T09:51:21;99.28;;;32.90;;
34836;SDS011;21053;50.848;4.652;2022-12-17T09:54:35;110.80;;;38.20;;
34836;SDS011;21053;50.848;4.652;2022-12-17T09:57:26;128.80;;;42.67;;
34836;SDS011;21053;50.848;4.652;2022-12-17T10:00:15;106.70;;;36.40;;
34836;SDS011;21053;50.848;4.652;2022-12-17T10:03:19;107.22;;;33.40;;
34836;SDS011;21053;50.848;4.652;2022-12-17T10:09:05;113.05;;;33.75;;
34836;SDS011;21053;50.848;4.652;2022-12-17T10:11:54;98.47;;;32.90;;
34836;SDS011;21053;50.848;4.652;2022-12-17T10:14:40;107.63;;;33.55;;
34836;SDS011;21053;50.848;4.652;2022-12-17T10:17:24;111.55;;;33.72;;
34836;SDS011;21053;50.848;4.652;2022-12-17T10:20:25;109.50;;;33.83;;
34836;SDS011;21053;50.848;4.652;2022-12-17T10:23:42;108.38;;;36.05;;
34836;SDS011;21053;50.848;4.652;2022-12-17T10:26:28;106.40;;;34.83;;
34836;SDS011;21053;50.848;4.652;2022-12-17T10:29:19;119.22;;;36.28;;
34836;SDS011;21053;50.848;4.652;2022-12-17T10:32:09;111.85;;;36.22;;
34836;SDS011;21053;50.848;4.652;2022-12-17T10:34:57;111.40;;;35.67;;
34836;SDS011;21053;50.848;4.652;2022-12-17T10:37:52;111.32;;;36.58;;
34836;SDS011;21053;50.848;4.652;2022-12-17T10:43:58;172.30;;;38.63;;
34836;SDS011;21053;50.848;4.652;2022-12-17T10:53:20;111.32;;;37.88;;
34836;SDS011;21053;50.848;4.652;2022-12-17T10:59:42;144.30;;;40.58;;
34836;SDS011;21053;50.848;4.652;2022-12-17T11:02:26;123.65;;;38.60;;
34836;SDS011;21053;50.848;4.652;2022-12-17T11:05:33;134.73;;;39.63;;
34836;SDS011;21053;50.848;4.652;2022-12-17T11:08:18;124.40;;;39.20;;
34836;SDS011;21053;50.848;4.652;2022-12-17T11:11:06;115.87;;;37.90;;
34836;SDS011;21053;50.848;4.652;2022-12-17T11:13:55;123.47;;;37.97;;
34836;SDS011;21053;50.848;4.652;2022-12-17T11:16:52;114.03;;;38.85;;
34836;SDS011;21053;50.848;4.652;2022-12-17T11:22:43;110.55;;;38.25;;
34836;SDS011;21053;50.848;4.652;2022-12-17T11:28:16;105.22;;;37.63;;
34836;SDS011;21053;50.848;4.652;2022-12-17T11:34:34;102.65;;;36.40;;
34836;SDS011;21053;50.848;4.652;2022-12-17T11:37:32;99.22;;;36.10;;
34836;SDS011;21053;50.848;4.652;2022-12-17T11:43:39;111.65;;;38.28;;
34836;SDS011;21053;50.848;4.652;2022-12-17T11:46:40;102.32;;;36.58;;
34836;SDS011;21053;50.848;4.652;2022-12-17T12:00:35;106.35;;;38.15;;
34836;SDS011;21053;50.848;4.652;2022-12-17T12:03:50;92.40;;;35.95;;
34836;SDS011;21053;50.848;4.652;2022-12-17T12:06:54;110.63;;;37.78;;
34836;SDS011;21053;50.848;4.652;2022-12-17T12:09:52;101.70;;;37.50;;
34836;SDS011;21053;50.848;4.652;2022-12-17T12:19:00;104.70;;;38.20;;
34836;SDS011;21053;50.848;4.652;2022-12-17T12:25:21;105.78;;;37.25;;
34836;SDS011;21053;50.848;4.652;2022-12-17T12:28:22;115.05;;;37.47;;
34836;SDS011;21053;50.848;4.652;2022-12-17T12:34:11;100.63;;;36.90;;
34836;SDS011;21053;50.848;4.652;2022-12-17T12:37:02;103.97;;;37.03;;
34836;SDS011;21053;50.848;4.652;2022-12-17T12:46:15;88.43;;;36.17;;
34836;SDS011;21053;50.848;4.652;2022-12-17T12:49:32;88.85;;;34.90;;
34836;SDS011;21053;50.848;4.652;2022-12-17T12:52:25;90.28;;;33.95;;
34836;SDS011;21053;50.848;4.652;2022-12-17T12:55:13;80.83;;;31.90;;
34836;SDS011;21053;50.848;4.652;2022-12-17T12:58:00;75.53;;;31.92;;
34836;SDS011;21053;50.848;4.652;2022-12-17T13:01:06;81.47;;;33.47;;
34836;SDS011;21053;50.848;4.652;2022-12-17T13:06:41;86.47;;;32.50;;
34836;SDS011;21053;50.848;4.652;2022-12-17T13:11:48;79.95;;;31.90;;
34836;SDS011;21053;50.848;4.652;2022-12-17T13:14:34;84.78;;;34.60;;
34836;SDS011;21053;50.848;4.652;2022-12-17T13:22:51;90.15;;;31.50;;
34836;SDS011;21053;50.848;4.652;2022-12-17T13:25:31;79.63;;;31.52;;
34836;SDS011;21053;50.848;4.652;2022-12-17T13:27:57;76.35;;;32.63;;
34836;SDS011;21053;50.848;4.652;2022-12-17T13:30:33;77.88;;;32.00;;
34836;SDS011;21053;50.848;4.652;2022-12-17T13:36:14;76.78;;;31.40;;
34836;SDS011;21053;50.848;4.652;2022-12-17T13:41:18;68.90;;;31.25;;
34836;SDS011;21053;50.848;4.652;2022-12-17T13:43:54;74.95;;;31.85;;
34836;SDS011;21053;50.848;4.652;2022-12-17T13:46:26;65.22;;;29.05;;
34836;SDS011;21053;50.848;4.652;2022-12-17T13:49:05;71.63;;;31.88;;
34836;SDS011;21053;50.848;4.652;2022-12-17T13:51:45;75.20;;;30.35;;
34836;SDS011;21053;50.848;4.652;2022-12-17T13:54:13;71.32;;;31.05;;
34836;SDS011;21053;50.848;4.652;2022-12-17T13:56:44;69.85;;;29.92;;
34836;SDS011;21053;50.848;4.652;2022-12-17T13:59:15;83.57;;;32.97;;
34836;SDS011;21053;50.848;4.652;2022-12-17T14:04:26;82.15;;;32.42;;
34836;SDS011;21053;50.848;4.652;2022-12-17T14:06:54;79.25;;;31.60;;
34836;SDS011;21053;50.848;4.652;2022-12-17T14:09:26;81.40;;;32.53;;
34836;SDS011;21053;50.848;4.652;2022-12-17T14:11:58;85.45;;;32.97;;
34836;SDS011;21053;50.848;4.652;2022-12-17T14:14:50;90.03;;;34.10;;
34836;SDS011;21053;50.848;4.652;2022-12-17T14:20:14;100.72;;;35.95;;
34836;SDS011;21053;50.848;4.652;2022-12-17T14:24:22;96.25;;;35.22;;
34836;SDS011;21053;50.848;4.652;2022-12-17T14:26:58;102.80;;;35.30;;
34836;SDS011;21053;50.848;4.652;2022-12-17T14:29:30;97.93;;;35.33;;
34836;SDS011;21053;50.848;4.652;2022-12-17T14:32:02;97.78;;;35.42;;
34836;SDS011;21053;50.848;4.652;2022-12-17T14:34:46;105.90;;;36.83;;
34836;SDS011;21053;50.848;4.652;2022-12-17T14:37:17;108.28;;;36.28;;
34836;SDS011;21053;50.848;4.652;2022-12-17T14:39:49;106.43;;;36.42;;
34836;SDS011;21053;50.848;4.652;2022-12-17T14:42:21;113.80;;;37.47;;
34836;SDS011;21053;50.848;4.652;2022-12-17T14:44:57;110.45;;;37.22;;
34836;SDS011;21053;50.848;4.652;2022-12-17T14:47:27;111.43;;;38.25;;
34836;SDS011;21053;50.848;4.652;2022-12-17T14:52:46;111.53;;;37.15;;
34836;SDS011;21053;50.848;4.652;2022-12-17T14:58:20;117.60;;;38.15;;
34836;SDS011;21053;50.848;4.652;2022-12-17T15:01:20;111.57;;;37.53;;
34836;SDS011;21053;50.848;4.652;2022-12-17T15:03:40;117.38;;;39.67;;
34836;SDS011;21053;50.848;4.652;2022-12-17T15:06:16;118.45;;;38.70;;
34836;SDS011;21053;50.848;4.652;2022-12-17T15:11:17;127.68;;;38.65;;
34836;SDS011;21053;50.848;4.652;2022-12-17T15:16:16;170.70;;;59.75;;
34836;SDS011;21053;50.848;4.652;2022-12-17T15:23:58;114.80;;;39.33;;
34836;SDS011;21053;50.848;4.652;2022-12-17T15:26:28;127.13;;;39.08;;
34836;SDS011;21053;50.848;4.652;2022-12-17T15:28:57;122.72;;;39.38;;
34836;SDS011;21053;50.848;4.652;2022-12-17T15:31:25;121.78;;;38.00;;
34836;SDS011;21053;50.848;4.652;2022-12-17T15:33:54;114.32;;;38.15;;
34836;SDS011;21053;50.848;4.652;2022-12-17T15:36:32;123.82;;;39.97;;
34836;SDS011;21053;50.848;4.652;2022-12-17T15:38:57;120.57;;;38.67;;
34836;SDS011;21053;50.848;4.652;2022-12-17T15:41:25;115.00;;;37.08;;
34836;SDS011;21053;50.848;4.652;2022-12-17T15:46:39;106.65;;;35.20;;
34836;SDS011;21053;50.848;4.652;2022-12-17T15:49:11;117.75;;;36.60;;
34836;SDS011;21053;50.848;4.652;2022-12-17T15:51:40;116.97;;;36.58;;
34836;SDS011;21053;50.848;4.652;2022-12-17T15:54:06;114.97;;;36.80;;
34836;SDS011;21053;50.848;4.652;2022-12-17T15:56:31;105.72;;;35.60;;
34836;SDS011;21053;50.848;4.652;2022-12-17T15:59:01;115.57;;;36.47;;
34836;SDS011;21053;50.848;4.652;2022-12-17T16:01:29;109.30;;;34.22;;
34836;SDS011;21053;50.848;4.652;2022-12-17T16:03:58;112.78;;;36.33;;
34836;SDS011;21053;50.848;4.652;2022-12-17T16:06:27;105.95;;;34.40;;
34836;SDS011;21053;50.848;4.652;2022-12-17T16:11:22;111.75;;;33.88;;
34836;SDS011;21053;50.848;4.652;2022-12-17T16:13:53;107.60;;;34.90;;
34836;SDS011;21053;50.848;4.652;2022-12-17T16:16:20;105.65;;;35.67;;
34836;SDS011;21053;50.848;4.652;2022-12-17T16:18:46;94.22;;;32.60;;
34836;SDS011;21053;50.848;4.652;2022-12-17T16:21:13;103.20;;;34.70;;
34836;SDS011;21053;50.848;4.652;2022-12-17T16:26:14;106.32;;;34.97;;
34836;SDS011;21053;50.848;4.652;2022-12-17T16:28:42;103.10;;;35.10;;
34836;SDS011;21053;50.848;4.652;2022-12-17T16:31:09;108.50;;;36.08;;
34836;SDS011;21053;50.848;4.652;2022-12-17T16:33:40;104.57;;;35.55;;
34836;SDS011;21053;50.848;4.652;2022-12-17T16:36:07;110.68;;;35.67;;
34836;SDS011;21053;50.848;4.652;2022-12-17T16:38:48;104.18;;;34.55;;
34836;SDS011;21053;50.848;4.652;2022-12-17T16:41:15;108.93;;;32.65;;
34836;SDS011;21053;50.848;4.652;2022-12-17T16:43:42;109.90;;;35.38;;
34836;SDS011;21053;50.848;4.652;2022-12-17T16:48:56;124.47;;;41.45;;
34836;SDS011;21053;50.848;4.652;2022-12-17T16:51:26;107.97;;;34.33;;
34836;SDS011;21053;50.848;4.652;2022-12-17T16:53:54;105.07;;;34.47;;
34836;SDS011;21053;50.848;4.652;2022-12-17T16:56:22;104.82;;;33.50;;
34836;SDS011;21053;50.848;4.652;2022-12-17T16:58:50;97.05;;;33.63;;
34836;SDS011;21053;50.848;4.652;2022-12-17T17:01:20;106.18;;;34.85;;
34836;SDS011;21053;50.848;4.652;2022-12-17T17:03:48;98.00;;;32.88;;
34836;SDS011;21053;50.848;4.652;2022-12-17T17:08:43;96.95;;;32.10;;
34836;SDS011;21053;50.848;4.652;2022-12-17T17:12:37;89.57;;;31.65;;
34836;SDS011;21053;50.848;4.652;2022-12-17T17:15:04;98.03;;;33.55;;
34836;SDS011;21053;50.848;4.652;2022-12-17T17:17:30;96.97;;;32.45;;
34836;SDS011;21053;50.848;4.652;2022-12-17T17:19:56;97.10;;;33.90;;
34836;SDS011;21053;50.848;4.652;2022-12-17T17:22:23;93.20;;;31.55;;
34836;SDS011;21053;50.848;4.652;2022-12-17T17:24:55;96.45;;;34.00;;
34836;SDS011;21053;50.848;4.652;2022-12-17T17:27:24;103.15;;;34.95;;
34836;SDS011;21053;50.848;4.652;2022-12-17T17:29:53;95.95;;;34.03;;
34836;SDS011;21053;50.848;4.652;2022-12-17T17:32:21;97.15;;;32.30;;
34836;SDS011;21053;50.848;4.652;2022-12-17T17:34:48;100.20;;;32.58;;
34836;SDS011;21053;50.848;4.652;2022-12-17T17:37:16;100.32;;;34.33;;
34836;SDS011;21053;50.848;4.652;2022-12-17T17:39:43;89.70;;;32.13;;
34836;SDS011;21053;50.848;4.652;2022-12-17T17:42:08;87.65;;;31.25;;
34836;SDS011;21053;50.848;4.652;2022-12-17T17:44:34;85.88;;;30.25;;
34836;SDS011;21053;50.848;4.652;2022-12-17T17:47:01;85.22;;;30.92;;
34836;SDS011;21053;50.848;4.652;2022-12-17T17:49:27;92.97;;;31.83;;
34836;SDS011;21053;50.848;4.652;2022-12-17T17:51:54;88.78;;;32.42;;
34836;SDS011;21053;50.848;4.652;2022-12-17T17:56:58;91.90;;;31.63;;
34836;SDS011;21053;50.848;4.652;2022-12-17T17:59:26;90.40;;;31.75;;
34836;SDS011;21053;50.848;4.652;2022-12-17T18:07:22;85.70;;;30.80;;
34836;SDS011;21053;50.848;4.652;2022-12-17T18:09:59;83.93;;;29.45;;
34836;SDS011;21053;50.848;4.652;2022-12-17T18:12:26;94.65;;;31.60;;
34836;SDS011;21053;50.848;4.652;2022-12-17T18:15:12;93.83;;;32.03;;
34836;SDS011;21053;50.848;4.652;2022-12-17T18:17:38;96.38;;;32.05;;
34836;SDS011;21053;50.848;4.652;2022-12-17T18:20:04;101.40;;;32.90;;
34836;SDS011;21053;50.848;4.652;2022-12-17T18:22:31;102.65;;;32.88;;
34836;SDS011;21053;50.848;4.652;2022-12-17T18:25:03;98.72;;;32.00;;
34836;SDS011;21053;50.848;4.652;2022-12-17T18:27:29;101.53;;;33.15;;
34836;SDS011;21053;50.848;4.652;2022-12-17T18:29:56;105.45;;;33.33;;
34836;SDS011;21053;50.848;4.652;2022-12-17T18:32:23;102.32;;;33.10;;
34836;SDS011;21053;50.848;4.652;2022-12-17T18:34:49;100.82;;;33.35;;
34836;SDS011;21053;50.848;4.652;2022-12-17T18:37:17;91.75;;;33.33;;
34836;SDS011;21053;50.848;4.652;2022-12-17T18:39:42;109.47;;;34.83;;
34836;SDS011;21053;50.848;4.652;2022-12-17T18:42:08;96.68;;;31.58;;
34836;SDS011;21053;50.848;4.652;2022-12-17T18:44:52;94.43;;;32.10;;
34836;SDS011;21053;50.848;4.652;2022-12-17T18:47:19;97.75;;;32.20;;
34836;SDS011;21053;50.848;4.652;2022-12-17T18:49:48;102.45;;;33.08;;
34836;SDS011;21053;50.848;4.652;2022-12-17T18:52:20;90.18;;;29.55;;
34836;SDS011;21053;50.848;4.652;2022-12-17T18:58:09;97.22;;;33.08;;
34836;SDS011;21053;50.848;4.652;2022-12-17T19:02:41;98.32;;;31.95;;
34836;SDS011;21053;50.848;4.652;2022-12-17T19:07:45;97.13;;;34.03;;
34836;SDS011;21053;50.848;4.652;2022-12-17T19:10:13;103.72;;;33.97;;
34836;SDS011;21053;50.848;4.652;2022-12-17T19:12:41;91.55;;;32.38;;
34836;SDS011;21053;50.848;4.652;2022-12-17T19:15:06;92.07;;;31.98;;
34836;SDS011;21053;50.848;4.652;2022-12-17T19:17:33;100.13;;;31.20;;